AMX918 MMLO-KMDW
Flight info
| Callsign | AMX918 |
|---|---|
| Flight time | N/A |
| Altitude | 34000 |
| Route | BJX3B BJX UJ40 SLP UJ31 SLW/N0451F350 UJ83 PNG DCT OCILU DCT PAVEE DCT HINKO DCT JCT DCT GONEY DCT BWD DCT DBLSS DCT NUKLZ DCT IMPCO DCT KLAWW DCT VINTA DCT HLV DCT MAGOO ENDEE8 |
| Aircraft | B738/M-SDE2E3FGHIRWXY/LB1 |
Departure
| Time | 2026-05-05 22:21 |
|---|---|
| Airport | Guanajuato International Airport (MMLO) |
Arrival
| Time | N/A |
|---|---|
| Airport | Chicago Midway International Airport (KMDW) |
| Time | Latitude | Longitude | Altitude | Speed | Heading |
|---|---|---|---|---|---|
| 2026-05-05 22:11 | 20.98663 | -101.47833 | 5917 ft | 0 kts | 225° |
| 2026-05-05 22:16 | 20.98669 | -101.47827 | 5917 ft | 2 kts | 226° |
| 2026-05-05 22:16 | 20.98687 | -101.47815 | 5918 ft | 1 kts | 171° |
| 2026-05-05 22:16 | 20.98701 | -101.47821 | 5918 ft | 0 kts | 157° |
| 2026-05-05 22:16 | 20.98674 | -101.47804 | 5918 ft | 7 kts | 117° |
| 2026-05-05 22:17 | 20.98662 | -101.47761 | 5918 ft | 3 kts | 106° |
| 2026-05-05 22:17 | 20.98659 | -101.47724 | 5919 ft | 13 kts | 74° |
| 2026-05-05 22:17 | 20.98735 | -101.47615 | 5921 ft | 18 kts | 36° |
| 2026-05-05 22:17 | 20.98778 | -101.47517 | 5921 ft | 14 kts | 110° |
| 2026-05-05 22:18 | 20.98683 | -101.47387 | 5919 ft | 32 kts | 133° |
| 2026-05-05 22:18 | 20.98524 | -101.47221 | 5918 ft | 29 kts | 130° |
| 2026-05-05 22:18 | 20.98435 | -101.47118 | 5917 ft | 6 kts | 135° |
| 2026-05-05 22:18 | 20.98410 | -101.47090 | 5916 ft | 4 kts | 135° |
| 2026-05-05 22:19 | 20.98391 | -101.47070 | 5916 ft | 7 kts | 135° |
| 2026-05-05 22:19 | 20.98351 | -101.47028 | 5916 ft | 6 kts | 136° |
| 2026-05-05 22:19 | 20.98323 | -101.47002 | 5915 ft | 5 kts | 144° |
| 2026-05-05 22:19 | 20.98258 | -101.46965 | 5913 ft | 10 kts | 138° |
| 2026-05-05 22:20 | 20.98264 | -101.46925 | 5913 ft | 5 kts | 336° |
| 2026-05-05 22:20 | 20.98304 | -101.46973 | 5914 ft | 31 kts | 311° |
| 2026-05-05 22:20 | 20.98652 | -101.47367 | 5918 ft | 111 kts | 317° |
| 2026-05-05 22:20 | 20.99350 | -101.48128 | 5927 ft | 176 kts | 313° |
| 2026-05-05 22:21 | 21.00321 | -101.49166 | 6235 ft | 210 kts | 313° |
| 2026-05-05 22:21 | 21.01362 | -101.50290 | 7091 ft | 218 kts | 313° |
| 2026-05-05 22:21 | 21.02392 | -101.51414 | 8049 ft | 221 kts | 309° |
| 2026-05-05 22:21 | 21.03379 | -101.52846 | 8367 ft | 257 kts | 299° |
| 2026-05-05 22:22 | 21.04142 | -101.54588 | 9361 ft | 258 kts | 287° |
| 2026-05-05 22:22 | 21.04712 | -101.56210 | 10961 ft | 228 kts | 296° |
| 2026-05-05 22:22 | 21.05661 | -101.57477 | 11916 ft | 227 kts | 319° |
| 2026-05-05 22:22 | 21.06967 | -101.58483 | 12391 ft | 242 kts | 322° |
| 2026-05-05 22:23 | 21.08299 | -101.59729 | 12657 ft | 265 kts | 312° |
| 2026-05-05 22:23 | 21.09578 | -101.61307 | 12868 ft | 292 kts | 305° |
| 2026-05-05 22:23 | 21.10565 | -101.63250 | 13104 ft | 311 kts | 288° |
| 2026-05-05 22:23 | 21.10960 | -101.65638 | 13360 ft | 337 kts | 270° |
| 2026-05-05 22:24 | 21.10742 | -101.68205 | 13581 ft | 361 kts | 258° |
| 2026-05-05 22:24 | 21.09924 | -101.70774 | 13848 ft | 377 kts | 240° |
| 2026-05-05 22:24 | 21.08255 | -101.72861 | 15001 ft | 369 kts | 219° |
| 2026-05-05 22:24 | 21.06085 | -101.74403 | 15747 ft | 376 kts | 205° |
| 2026-05-05 22:25 | 21.03596 | -101.75234 | 16635 ft | 378 kts | 187° |
| 2026-05-05 22:25 | 21.00990 | -101.75108 | 17432 ft | 382 kts | 166° |
| 2026-05-05 22:25 | 20.98536 | -101.74012 | 18313 ft | 384 kts | 149° |
| 2026-05-05 22:25 | 20.96412 | -101.72242 | 19051 ft | 391 kts | 135° |
| 2026-05-05 22:26 | 20.94776 | -101.69910 | 19865 ft | 396 kts | 122° |
| 2026-05-05 22:26 | 20.93612 | -101.67249 | 20589 ft | 402 kts | 111° |
| 2026-05-05 22:26 | 20.92914 | -101.64326 | 21278 ft | 410 kts | 101° |
| 2026-05-05 22:26 | 20.92733 | -101.61241 | 22002 ft | 416 kts | 90° |
| 2026-05-05 22:27 | 20.93065 | -101.58201 | 22651 ft | 424 kts | 81° |
| 2026-05-05 22:27 | 20.93923 | -101.55135 | 23224 ft | 433 kts | 70° |
| 2026-05-05 22:27 | 20.95278 | -101.52257 | 23816 ft | 440 kts | 60° |
| 2026-05-05 22:27 | 20.97133 | -101.49578 | 24352 ft | 448 kts | 50° |
| 2026-05-05 22:28 | 20.99389 | -101.47257 | 24803 ft | 457 kts | 40° |
| 2026-05-05 22:28 | 21.02050 | -101.45302 | 25269 ft | 465 kts | 30° |
| 2026-05-05 22:28 | 21.05028 | -101.43802 | 25689 ft | 473 kts | 21° |
| 2026-05-05 22:28 | 21.08178 | -101.42730 | 26102 ft | 480 kts | 15° |
| 2026-05-05 22:29 | 21.11433 | -101.41815 | 26526 ft | 487 kts | 14° |
| 2026-05-05 22:29 | 21.14742 | -101.40871 | 26914 ft | 495 kts | 15° |
| 2026-05-05 22:29 | 21.18070 | -101.39817 | 27245 ft | 504 kts | 17° |
| 2026-05-05 22:29 | 21.21413 | -101.38635 | 27655 ft | 511 kts | 19° |
| 2026-05-05 22:30 | 21.24784 | -101.37334 | 28334 ft | 511 kts | 20° |
| 2026-05-05 22:30 | 21.28076 | -101.35983 | 29252 ft | 505 kts | 20° |
| 2026-05-05 22:30 | 21.31333 | -101.34596 | 30137 ft | 500 kts | 21° |
| 2026-05-05 22:30 | 21.34558 | -101.33194 | 30803 ft | 500 kts | 22° |
| 2026-05-05 22:31 | 21.37778 | -101.31780 | 31467 ft | 499 kts | 22° |
| 2026-05-05 22:31 | 21.40958 | -101.30377 | 32133 ft | 498 kts | 22° |
| 2026-05-05 22:31 | 21.44156 | -101.28966 | 32794 ft | 496 kts | 22° |
| 2026-05-05 22:31 | 21.47370 | -101.27551 | 33557 ft | 494 kts | 21° |
| 2026-05-05 22:32 | 21.50533 | -101.26159 | 34274 ft | 492 kts | 21° |
| 2026-05-05 22:32 | 21.53720 | -101.24758 | 34405 ft | 498 kts | 21° |
| 2026-05-05 22:32 | 21.56931 | -101.23348 | 34431 ft | 496 kts | 21° |
| 2026-05-05 22:33 | 21.63252 | -101.20573 | 34438 ft | 488 kts | 21° |
| 2026-05-05 22:33 | 21.69585 | -101.17790 | 34439 ft | 487 kts | 21° |
| 2026-05-05 22:34 | 21.75921 | -101.15001 | 34427 ft | 488 kts | 21° |
| 2026-05-05 22:34 | 21.82246 | -101.12216 | 34422 ft | 488 kts | 21° |
| 2026-05-05 22:35 | 21.88559 | -101.09434 | 34425 ft | 489 kts | 21° |
| 2026-05-05 22:35 | 21.94844 | -101.06664 | 34433 ft | 489 kts | 21° |
| 2026-05-05 22:36 | 22.01108 | -101.03906 | 34439 ft | 488 kts | 21° |
| 2026-05-05 22:36 | 22.07427 | -101.01119 | 34401 ft | 489 kts | 21° |
| 2026-05-05 22:37 | 22.13733 | -100.98336 | 34351 ft | 489 kts | 21° |
| 2026-05-05 22:37 | 22.20081 | -100.95535 | 34310 ft | 491 kts | 20° |
| 2026-05-05 22:38 | 22.26563 | -100.93293 | 34255 ft | 488 kts | 8° |
| 2026-05-05 22:38 | 22.33300 | -100.92697 | 34270 ft | 485 kts | 358° |
| 2026-05-05 22:39 | 22.40070 | -100.92749 | 34272 ft | 485 kts | 356° |
| 2026-05-05 22:39 | 22.46820 | -100.92896 | 34292 ft | 486 kts | 356° |
| 2026-05-05 22:40 | 22.53591 | -100.92986 | 34305 ft | 485 kts | 357° |
| 2026-05-05 22:40 | 22.60368 | -100.93020 | 34300 ft | 486 kts | 357° |
| 2026-05-05 22:41 | 22.67147 | -100.93028 | 34302 ft | 486 kts | 357° |
| 2026-05-05 22:41 | 22.73910 | -100.93026 | 34288 ft | 488 kts | 357° |
| 2026-05-05 22:42 | 22.80723 | -100.93019 | 34300 ft | 487 kts | 357° |
| 2026-05-05 22:42 | 22.87486 | -100.93012 | 34300 ft | 487 kts | 357° |
| 2026-05-05 22:43 | 22.94303 | -100.93009 | 34314 ft | 489 kts | 357° |
| 2026-05-05 22:43 | 23.01131 | -100.93005 | 34321 ft | 489 kts | 357° |
| 2026-05-05 22:44 | 23.07931 | -100.93001 | 34331 ft | 490 kts | 357° |
| 2026-05-05 22:44 | 23.14769 | -100.92996 | 34337 ft | 489 kts | 356° |
| 2026-05-05 22:45 | 23.21602 | -100.92996 | 34343 ft | 489 kts | 356° |
| 2026-05-05 22:45 | 23.28404 | -100.92998 | 34343 ft | 489 kts | 356° |
| 2026-05-05 22:46 | 23.35217 | -100.92997 | 34322 ft | 489 kts | 356° |
| 2026-05-05 22:46 | 23.42049 | -100.92996 | 34305 ft | 489 kts | 356° |
| 2026-05-05 22:47 | 23.48835 | -100.92999 | 34289 ft | 490 kts | 356° |
| 2026-05-05 22:47 | 23.55657 | -100.93001 | 34285 ft | 490 kts | 356° |
| 2026-05-05 22:48 | 23.62468 | -100.93008 | 34283 ft | 490 kts | 356° |
| 2026-05-05 22:48 | 23.69308 | -100.93017 | 34283 ft | 491 kts | 356° |
| 2026-05-05 22:49 | 23.76134 | -100.93023 | 34282 ft | 489 kts | 356° |
| 2026-05-05 22:49 | 23.82948 | -100.93027 | 34285 ft | 489 kts | 356° |
| 2026-05-05 22:50 | 23.89755 | -100.93026 | 34287 ft | 490 kts | 356° |
| 2026-05-05 22:50 | 23.96577 | -100.93024 | 34291 ft | 490 kts | 356° |
| 2026-05-05 22:51 | 24.03458 | -100.93021 | 34293 ft | 490 kts | 356° |
| 2026-05-05 22:51 | 24.10291 | -100.93018 | 34297 ft | 491 kts | 356° |
| 2026-05-05 22:52 | 24.17141 | -100.93010 | 34301 ft | 493 kts | 356° |
| 2026-05-05 22:52 | 24.23973 | -100.93005 | 34303 ft | 490 kts | 356° |
| 2026-05-05 22:53 | 24.30794 | -100.93003 | 34311 ft | 492 kts | 355° |
| 2026-05-05 22:53 | 24.37660 | -100.93001 | 34327 ft | 492 kts | 355° |
| 2026-05-05 22:54 | 24.44517 | -100.93002 | 34342 ft | 491 kts | 355° |
| 2026-05-05 22:54 | 24.51363 | -100.93002 | 34355 ft | 491 kts | 355° |
| 2026-05-05 22:55 | 24.58229 | -100.92999 | 34347 ft | 493 kts | 355° |
| 2026-05-05 22:55 | 24.65082 | -100.92999 | 34335 ft | 492 kts | 355° |
| 2026-05-05 22:56 | 24.71946 | -100.92999 | 34330 ft | 492 kts | 355° |
| 2026-05-05 22:56 | 24.78826 | -100.92996 | 34311 ft | 492 kts | 355° |
| 2026-05-05 22:57 | 24.85702 | -100.92993 | 34311 ft | 493 kts | 355° |
| 2026-05-05 22:57 | 24.92575 | -100.92997 | 34328 ft | 493 kts | 354° |
| 2026-05-05 22:58 | 24.99436 | -100.93000 | 34331 ft | 494 kts | 355° |
| 2026-05-05 22:58 | 25.06346 | -100.92999 | 34332 ft | 495 kts | 354° |
| 2026-05-05 22:59 | 25.13240 | -100.92991 | 34347 ft | 494 kts | 355° |
| 2026-05-05 22:59 | 25.20126 | -100.92986 | 34337 ft | 494 kts | 354° |
| 2026-05-05 23:00 | 25.30473 | -100.92985 | 34305 ft | 494 kts | 354° |
| 2026-05-05 23:00 | 25.37353 | -100.92989 | 34223 ft | 495 kts | 354° |
| 2026-05-05 23:01 | 25.44273 | -100.92988 | 34188 ft | 496 kts | 354° |
| 2026-05-05 23:01 | 25.51142 | -100.92983 | 34132 ft | 495 kts | 354° |
| 2026-05-05 23:02 | 25.58100 | -100.92710 | 34085 ft | 499 kts | 359° |
| 2026-05-05 23:02 | 25.65001 | -100.91904 | 34070 ft | 502 kts | 1° |
| 2026-05-05 23:03 | 25.71995 | -100.90949 | 34024 ft | 504 kts | 1° |
| 2026-05-05 23:03 | 25.78936 | -100.90015 | 33974 ft | 502 kts | 1° |
| 2026-05-05 23:04 | 25.85879 | -100.89116 | 33975 ft | 501 kts | 0° |
| 2026-05-05 23:04 | 25.92793 | -100.88248 | 33961 ft | 500 kts | 0° |
| 2026-05-05 23:05 | 25.99756 | -100.87388 | 33931 ft | 501 kts | 0° |
| 2026-05-05 23:05 | 26.06706 | -100.86522 | 33917 ft | 501 kts | 360° |
| 2026-05-05 23:06 | 26.13699 | -100.85658 | 33893 ft | 505 kts | 360° |
| 2026-05-05 23:06 | 26.20652 | -100.84792 | 33877 ft | 503 kts | 0° |
| 2026-05-05 23:07 | 26.27607 | -100.83919 | 33865 ft | 501 kts | 0° |
| 2026-05-05 23:07 | 26.34552 | -100.83047 | 33857 ft | 503 kts | 0° |
| 2026-05-05 23:08 | 26.41562 | -100.82173 | 33850 ft | 506 kts | 360° |
| 2026-05-05 23:08 | 26.48499 | -100.81297 | 33839 ft | 500 kts | 360° |
| 2026-05-05 23:09 | 26.55442 | -100.80422 | 33824 ft | 504 kts | 360° |
| 2026-05-05 23:09 | 26.62404 | -100.79548 | 33817 ft | 504 kts | 360° |
| 2026-05-05 23:10 | 26.69388 | -100.78672 | 33809 ft | 504 kts | 359° |
| 2026-05-05 23:10 | 26.76370 | -100.77795 | 33800 ft | 506 kts | 359° |
| 2026-05-05 23:11 | 26.83322 | -100.76918 | 33812 ft | 504 kts | 360° |
| 2026-05-05 23:11 | 26.90339 | -100.76036 | 33830 ft | 505 kts | 360° |
| 2026-05-05 23:12 | 26.97288 | -100.75158 | 33861 ft | 503 kts | 360° |
| 2026-05-05 23:12 | 27.04292 | -100.74277 | 33863 ft | 506 kts | 359° |
| 2026-05-05 23:13 | 27.11319 | -100.73392 | 33822 ft | 506 kts | 359° |
| 2026-05-05 23:13 | 27.18314 | -100.72498 | 33786 ft | 505 kts | 359° |
| 2026-05-05 23:14 | 27.25313 | -100.71603 | 33751 ft | 510 kts | 360° |
| 2026-05-05 23:14 | 27.32371 | -100.70702 | 33741 ft | 507 kts | 359° |
| 2026-05-05 23:15 | 27.39393 | -100.69809 | 33737 ft | 509 kts | 359° |
| 2026-05-05 23:15 | 27.46411 | -100.68913 | 33733 ft | 507 kts | 359° |
| 2026-05-05 23:16 | 27.53405 | -100.68010 | 33733 ft | 508 kts | 359° |
| 2026-05-05 23:16 | 27.60497 | -100.67097 | 33741 ft | 512 kts | 359° |
| 2026-05-05 23:17 | 27.67554 | -100.66198 | 33742 ft | 507 kts | 359° |
| 2026-05-05 23:17 | 27.74571 | -100.65301 | 33747 ft | 508 kts | 359° |
| 2026-05-05 23:18 | 27.81621 | -100.64406 | 33756 ft | 508 kts | 359° |
| 2026-05-05 23:18 | 27.88640 | -100.63509 | 33763 ft | 510 kts | 359° |
| 2026-05-05 23:19 | 27.95679 | -100.62600 | 33769 ft | 507 kts | 359° |
| 2026-05-05 23:19 | 28.02688 | -100.61692 | 33780 ft | 506 kts | 358° |
| 2026-05-05 23:20 | 28.09755 | -100.60783 | 33774 ft | 509 kts | 359° |
| 2026-05-05 23:20 | 28.16742 | -100.59870 | 33775 ft | 508 kts | 359° |
| 2026-05-05 23:21 | 28.23845 | -100.58964 | 33768 ft | 511 kts | 359° |
| 2026-05-05 23:21 | 28.30869 | -100.58049 | 33769 ft | 509 kts | 358° |
| 2026-05-05 23:22 | 28.37985 | -100.57135 | 33757 ft | 511 kts | 358° |
| 2026-05-05 23:22 | 28.45024 | -100.56222 | 33751 ft | 511 kts | 358° |
| 2026-05-05 23:23 | 28.52095 | -100.55299 | 33752 ft | 512 kts | 358° |
| 2026-05-05 23:23 | 28.59168 | -100.54368 | 33748 ft | 510 kts | 358° |
| 2026-05-05 23:24 | 28.66276 | -100.53244 | 33746 ft | 517 kts | 2° |
| 2026-05-05 23:24 | 28.73338 | -100.51537 | 33742 ft | 519 kts | 5° |
| 2026-05-05 23:25 | 28.80396 | -100.49648 | 33744 ft | 521 kts | 5° |
| 2026-05-05 23:25 | 28.87471 | -100.47792 | 33754 ft | 522 kts | 4° |
| 2026-05-05 23:26 | 28.94519 | -100.46093 | 33766 ft | 518 kts | 3° |
| 2026-05-05 23:26 | 29.01650 | -100.44448 | 33773 ft | 519 kts | 3° |
| 2026-05-05 23:27 | 29.08742 | -100.42815 | 33781 ft | 518 kts | 2° |
| 2026-05-05 23:27 | 29.15800 | -100.41177 | 33785 ft | 520 kts | 2° |
| 2026-05-05 23:28 | 29.22910 | -100.39518 | 33792 ft | 519 kts | 2° |
| 2026-05-05 23:28 | 29.29963 | -100.37863 | 33800 ft | 518 kts | 2° |
| 2026-05-05 23:29 | 29.37043 | -100.36201 | 33803 ft | 521 kts | 2° |
| 2026-05-05 23:29 | 29.44144 | -100.34532 | 33800 ft | 518 kts | 3° |
| 2026-05-05 23:30 | 29.51248 | -100.32870 | 33808 ft | 522 kts | 3° |
| 2026-05-05 23:30 | 29.58332 | -100.31189 | 33824 ft | 518 kts | 3° |
| 2026-05-05 23:31 | 29.65412 | -100.29514 | 33840 ft | 520 kts | 2° |
| 2026-05-05 23:31 | 29.72483 | -100.27837 | 33856 ft | 519 kts | 3° |
| 2026-05-05 23:32 | 29.79555 | -100.25685 | 33869 ft | 531 kts | 10° |
| 2026-05-05 23:32 | 29.86523 | -100.22774 | 33874 ft | 532 kts | 13° |
| 2026-05-05 23:33 | 29.93412 | -100.19602 | 33869 ft | 531 kts | 14° |
| 2026-05-05 23:33 | 30.00318 | -100.16418 | 33876 ft | 535 kts | 13° |
| 2026-05-05 23:34 | 30.07177 | -100.13252 | 33888 ft | 533 kts | 15° |
| 2026-05-05 23:34 | 30.13935 | -100.09545 | 33889 ft | 540 kts | 19° |
| 2026-05-05 23:35 | 30.20573 | -100.05504 | 33880 ft | 542 kts | 20° |
| 2026-05-05 23:35 | 30.27232 | -100.01411 | 33876 ft | 540 kts | 20° |
| 2026-05-05 23:36 | 30.33881 | -99.97353 | 33873 ft | 539 kts | 19° |